Time;durP1;ratioP1;P1;durP2;ratioP2;P2;SDS_P1;SDS_P2;PMS_P1;PMS_P2;Temp;Humidity;BMP_temperature;BMP_pressure;BME280_temperature;BME280_humidity;BME280_pressure;Samples;Min_cycle;Max_cycle;Signal;HPM_P1;HPM_P2
2023/03/26 00:00:42;;;;;;;13.38;4.90;;;;;;;8.97;100.00;100612.56;6308281;22;20011;-85
2023/03/26 00:03:10;;;;;;;22.25;3.88;;;;;;;9.01;100.00;100622.06;6280364;22;20496;-86
2023/03/26 00:05:36;;;;;;;31.92;4.65;;;;;;;8.98;100.00;100619.56;6308187;22;20015;-85
2023/03/26 00:08:02;;;;;;;25.23;5.55;;;;;;;8.97;100.00;100620.53;6280085;22;20383;-85
2023/03/26 00:10:27;;;;;;;29.90;4.47;;;;;;;9.08;100.00;100613.59;6280225;22;20011;-85
2023/03/26 00:12:53;;;;;;;26.08;5.05;;;;;;;8.95;100.00;100620.63;6307340;22;20011;-86
2023/03/26 00:15:18;;;;;;;24.95;5.95;;;;;;;9.05;100.00;100615.63;6307344;22;20019;-85
2023/03/26 00:17:47;;;;;;;26.13;4.85;;;;;;;9.14;100.00;100616.88;6280384;22;20015;-85
2023/03/26 00:20:12;;;;;;;17.38;4.40;;;;;;;9.08;100.00;100623.38;6307875;22;20011;-85
2023/03/26 00:22:39;;;;;;;31.77;5.18;;;;;;;9.30;100.00;100621.16;6254672;22;20478;-86
2023/03/26 00:25:06;;;;;;;24.85;5.82;;;;;;;9.20;100.00;100616.50;6280464;22;20011;-86
2023/03/26 00:27:32;;;;;;;40.85;6.03;;;;;;;9.28;100.00;100624.84;6307675;22;20015;-85
2023/03/26 00:29:59;;;;;;;35.08;6.82;;;;;;;9.24;100.00;100618.03;6280283;22;20031;-85
2023/03/26 00:32:27;;;;;;;28.27;6.07;;;;;;;9.31;100.00;100609.53;6307182;22;20043;-86
2023/03/26 00:34:56;;;;;;;28.77;4.65;;;;;;;9.28;100.00;100606.22;6308198;22;20014;-85
2023/03/26 00:37:25;;;;;;;50.17;5.45;;;;;;;9.38;100.00;100607.34;6280323;22;20041;-86
2023/03/26 00:39:58;;;;;;;30.85;7.18;;;;;;;9.43;100.00;100586.63;6280967;22;20530;-85
2023/03/26 00:42:28;;;;;;;22.52;5.03;;;;;;;9.43;100.00;100593.75;6254398;22;20019;-85
2023/03/26 00:44:56;;;;;;;33.72;4.82;;;;;;;9.40;100.00;100586.84;6307663;22;20090;-85
2023/03/26 00:47:23;;;;;;;35.90;4.72;;;;;;;9.32;100.00;100589.97;6280568;22;20007;-85
2023/03/26 00:49:49;;;;;;;31.67;5.18;;;;;;;9.50;100.00;100587.97;6307308;22;20038;-85
2023/03/26 00:52:17;;;;;;;46.42;9.48;;;;;;;9.18;100.00;100586.44;6279610;22;20012;-85
2023/03/26 00:54:52;;;;;;;27.30;5.78;;;;;;;9.45;100.00;100583.88;6254646;22;20035;-85
2023/03/26 00:57:22;;;;;;;30.20;5.72;;;;;;;9.24;100.00;100578.97;6280109;22;20019;-85
2023/03/26 00:59:50;;;;;;;35.25;5.93;;;;;;;9.21;100.00;100581.81;6253658;22;20012;-85
2023/03/26 01:02:19;;;;;;;32.97;6.30;;;;;;;9.30;100.00;100572.41;6279481;22;20045;-86
2023/03/26 01:05:03;;;;;;;42.65;8.35;;;;;;;9.26;100.00;100578.84;6279418;22;20447;-85
2023/03/26 01:07:28;;;;;;;42.45;6.88;;;;;;;9.23;100.00;100571.91;6306806;22;20018;-85
2023/03/26 01:09:57;;;;;;;33.15;5.72;;;;;;;9.22;100.00;100577.34;6278848;22;20130;-85
2023/03/26 01:12:26;;;;;;;49.15;5.95;;;;;;;9.10;100.00;100576.28;6279277;22;20061;-85
2023/03/26 01:14:55;;;;;;;47.42;10.23;;;;;;;9.13;100.00;100565.44;6308494;22;20015;-85
2023/03/26 01:17:22;;;;;;;50.65;8.55;;;;;;;9.14;100.00;100566.34;6308864;22;20010;-86
2023/03/26 01:20:11;;;;;;;34.88;7.22;;;;;;;9.12;100.00;100561.09;6281493;22;20019;-85
2023/03/26 01:22:40;;;;;;;40.45;6.78;;;;;;;9.13;100.00;100559.28;6309975;22;20018;-85
2023/03/26 01:25:08;;;;;;;36.92;7.50;;;;;;;9.22;100.00;100548.91;6309593;22;20391;-85
2023/03/26 01:27:50;;;;;;;35.15;7.10;;;;;;;9.21;100.00;100549.88;6282571;22;20015;-85
2023/03/26 01:30:41;;;;;;;49.58;8.98;;;;;;;9.04;100.00;100556.25;6282889;22;20015;-85
2023/03/26 01:33:32;;;;;;;44.10;8.77;;;;;;;9.08;100.00;100551.56;6281627;22;20381;-86
2023/03/26 01:36:07;;;;;;;44.67;8.60;;;;;;;9.15;100.00;100546.75;6281674;22;20019;-86
2023/03/26 01:39:29;;;;;;;44.42;9.30;;;;;;;9.28;100.00;100540.53;6308590;22;20011;-85
2023/03/26 01:42:03;;;;;;;60.88;7.20;;;;;;;9.22;100.00;100535.63;6133388;23;20902;-86
2023/03/26 01:44:31;;;;;;;46.17;8.55;;;;;;;9.15;100.00;100534.31;6307304;22;20332;-85
2023/03/26 01:46:58;;;;;;;59.88;10.10;;;;;;;9.17;100.00;100534.19;6253131;22;20098;-86
2023/03/26 01:49:26;;;;;;;45.78;8.68;;;;;;;9.22;100.00;100526.78;6279208;22;20012;-85
2023/03/26 01:51:55;;;;;;;46.05;8.73;;;;;;;9.31;100.00;100527.06;6307507;22;20086;-86
2023/03/26 01:54:23;;;;;;;40.78;8.70;;;;;;;9.39;100.00;100525.72;6280797;22;20098;-85
2023/03/26 01:57:05;;;;;;;58.72;8.80;;;;;;;9.47;100.00;100518.09;6308443;22;20015;-85
2023/03/26 02:00:05;;;;;;;54.75;9.60;;;;;;;9.44;100.00;100508.53;6281906;22;20011;-86
2023/03/26 02:02:47;;;;;;;32.28;7.57;;;;;;;9.56;100.00;100507.72;6306399;22;20015;-85
2023/03/26 02:05:28;;;;;;;46.47;8.05;;;;;;;9.52;100.00;100495.56;6306058;22;20018;-85
2023/03/26 02:08:05;;;;;;;49.42;10.82;;;;;;;9.28;100.00;100502.44;6306569;22;20465;-85
2023/03/26 02:10:37;;;;;;;47.65;8.43;;;;;;;9.52;100.00;100492.91;6305937;22;20019;-85
2023/03/26 02:13:04;;;;;;;44.80;8.82;;;;;;;9.52;100.00;100494.72;6306554;22;20012;-85
2023/03/26 02:15:31;;;;;;;49.90;9.13;;;;;;;9.54;100.00;100490.16;6252972;22;20805;-85
2023/03/26 02:17:58;;;;;;;59.70;10.38;;;;;;;9.41;100.00;100481.25;6308120;22;20042;-86
2023/03/26 02:20:28;;;;;;;41.63;8.45;;;;;;;9.31;100.00;100483.63;6256563;22;20015;-85
2023/03/26 02:22:55;;;;;;;59.72;12.15;;;;;;;9.45;100.00;100480.94;6282212;22;20014;-86
2023/03/26 02:25:21;;;;;;;45.05;9.93;;;;;;;9.25;100.00;100479.56;6279941;22;20015;-87
2023/03/26 02:27:51;;;;;;;54.03;11.23;;;;;;;9.43;100.00;100479.31;6255490;22;20019;-85
2023/03/26 02:30:20;;;;;;;49.90;10.50;;;;;;;9.27;100.00;100480.31;6280675;22;20019;-86
2023/03/26 02:32:51;;;;;;;59.57;11.90;;;;;;;9.27;100.00;100482.13;6281912;22;20026;-85
2023/03/26 02:35:17;;;;;;;52.03;10.90;;;;;;;9.39;100.00;100470.72;6281151;22;20019;-85
2023/03/26 02:37:45;;;;;;;52.00;10.88;;;;;;;9.38;100.00;100465.47;6281374;22;20088;-85
2023/03/26 02:40:16;;;;;;;54.22;11.52;;;;;;;9.30;100.00;100458.84;6281445;22;20015;-85
2023/03/26 02:42:44;;;;;;;51.47;12.13;;;;;;;9.44;100.00;100455.28;6281036;22;20471;-85
2023/03/26 02:45:10;;;;;;;46.20;11.80;;;;;;;9.52;100.00;100454.78;6281379;22;20021;-85
2023/03/26 02:47:49;;;;;;;51.08;13.13;;;;;;;9.45;100.00;100454.34;6319123;22;20031;-85
2023/03/26 02:50:42;;;;;;;49.90;12.02;;;;;;;9.32;100.00;100453.41;6303559;22;20469;-85
2023/03/26 02:53:38;;;;;;;58.10;13.18;;;;;;;9.29;100.00;100453.63;6174926;22;20025;-85
2023/03/26 02:56:30;;;;;;;54.17;11.50;;;;;;;9.31;100.00;100454.38;6269906;22;20098;-85
2023/03/26 02:59:14;;;;;;;42.50;11.02;;;;;;;9.27;100.00;100458.16;6280949;22;20062;-86
2023/03/26 03:01:42;;;;;;;44.92;11.70;;;;;;;9.15;100.00;100458.97;6276347;22;20092;-85
2023/03/26 03:04:10;;;;;;;60.25;12.40;;;;;;;9.26;100.00;100457.31;6250402;22;20015;-85
2023/03/26 03:06:39;;;;;;;68.35;14.65;;;;;;;9.27;100.00;100456.38;6276618;22;20027;-85
2023/03/26 03:09:07;;;;;;;55.42;13.00;;;;;;;9.10;100.00;100445.97;6277653;22;20026;-85
2023/03/26 03:11:36;;;;;;;67.43;12.88;;;;;;;9.20;100.00;100441.75;6316761;22;20102;-85
2023/03/26 03:14:03;;;;;;;56.40;10.50;;;;;;;9.07;100.00;100439.00;6278815;22;20029;-86
2023/03/26 03:16:30;;;;;;;53.72;11.00;;;;;;;9.18;100.00;100443.66;6280213;22;20062;-85
2023/03/26 03:19:00;;;;;;;64.07;14.13;;;;;;;9.08;100.00;100431.88;6281311;22;20007;-85
2023/03/26 03:21:34;;;;;;;56.95;11.45;;;;;;;9.06;100.00;100439.13;6280372;22;20019;-85
2023/03/26 03:24:00;;;;;;;51.47;11.35;;;;;;;8.98;100.00;100428.97;6281360;22;20022;-85
2023/03/26 03:26:26;;;;;;;41.92;10.43;;;;;;;9.01;100.00;100431.44;6255092;22;20019;-86
2023/03/26 03:28:55;;;;;;;45.58;10.73;;;;;;;9.14;100.00;100420.88;6280459;22;20007;-86
2023/03/26 03:31:21;;;;;;;56.33;11.27;;;;;;;8.93;100.00;100427.53;6280630;22;20098;-85
2023/03/26 03:33:47;;;;;;;56.88;10.63;;;;;;;9.03;100.00;100412.72;6255258;22;20069;-85
2023/03/26 03:36:17;;;;;;;45.00;10.15;;;;;;;9.12;100.00;100405.97;6281166;22;20019;-86
2023/03/26 03:38:44;;;;;;;52.00;10.52;;;;;;;9.18;100.00;100413.53;6280093;22;20444;-85
2023/03/26 03:41:13;;;;;;;55.15;11.32;;;;;;;9.05;100.00;100410.81;6280090;22;20138;-86
2023/03/26 03:43:41;;;;;;;48.53;11.85;;;;;;;8.98;100.00;100405.03;6280449;22;20094;-85
2023/03/26 03:46:22;;;;;;;44.90;10.13;;;;;;;9.13;100.00;100410.31;6258654;22;20713;-86
2023/03/26 03:48:48;;;;;;;37.13;10.30;;;;;;;9.16;100.00;100404.81;6280403;22;20011;-85
2023/03/26 03:51:19;;;;;;;88.97;13.35;;;;;;;9.14;100.00;100412.91;6279602;22;20030;-85
2023/03/26 03:53:50;;;;;;;51.08;10.05;;;;;;;9.01;100.00;100411.97;6280394;22;20090;-85
2023/03/26 03:56:25;;;;;;;63.22;12.07;;;;;;;9.15;100.00;100414.59;6279645;22;20019;-85
2023/03/26 03:59:16;;;;;;;44.78;10.07;;;;;;;9.13;100.00;100408.50;6279296;22;20015;-85
2023/03/26 04:01:45;;;;;;;66.53;10.93;;;;;;;9.13;100.00;100403.19;6279898;22;20019;-85
2023/03/26 04:04:20;;;;;;;52.80;11.57;;;;;;;9.25;100.00;100405.06;6179142;22;20021;-85
2023/03/26 04:07:07;;;;;;;48.47;11.70;;;;;;;9.40;100.00;100397.91;6247374;22;20114;-85
2023/03/26 04:10:07;;;;;;;50.55;10.85;;;;;;;9.43;100.00;100399.50;6307286;22;20019;-85
2023/03/26 04:12:52;;;;;;;57.45;13.30;;;;;;;9.43;100.00;100389.69;6307860;22;20108;-85
2023/03/26 04:15:21;;;;;;;38.10;10.43;;;;;;;9.47;100.00;100385.88;6280175;22;20025;-85
2023/03/26 04:17:47;;;;;;;43.17;10.40;;;;;;;9.48;100.00;100384.06;6280338;22;20085;-85
2023/03/26 04:20:15;;;;;;;49.58;11.05;;;;;;;9.39;100.00;100377.56;6280342;22;20898;-85
2023/03/26 04:22:43;;;;;;;50.25;12.50;;;;;;;9.51;100.00;100370.56;6280555;22;20035;-86
2023/03/26 04:25:11;;;;;;;49.90;11.80;;;;;;;9.63;100.00;100364.41;6254241;22;20015;-85
2023/03/26 04:27:49;;;;;;;48.40;10.68;;;;;;;9.60;100.00;100369.97;6278765;22;20037;-85
2023/03/26 04:30:34;;;;;;;48.30;10.00;;;;;;;9.44;100.00;100363.94;6279362;22;20023;-85
2023/03/26 04:33:14;;;;;;;49.25;11.70;;;;;;;9.50;100.00;100364.41;6279738;22;20402;-85
2023/03/26 04:35:43;;;;;;;53.63;11.98;;;;;;;9.61;100.00;100358.34;6254425;22;20849;-85
2023/03/26 04:38:10;;;;;;;49.30;10.25;;;;;;;9.55;100.00;100356.09;6254006;22;20023;-85
2023/03/26 04:40:41;;;;;;;44.65;8.82;;;;;;;9.66;100.00;100358.91;6279224;22;20023;-85
2023/03/26 04:43:11;;;;;;;57.78;11.90;;;;;;;9.28;100.00;100358.78;6306795;22;20030;-85
2023/03/26 04:45:56;;;;;;;51.42;9.20;;;;;;;9.46;100.00;100354.91;6289224;22;20119;-85
2023/03/26 04:48:25;;;;;;;42.10;9.40;;;;;;;9.39;100.00;100347.41;6279350;22;20019;-85
2023/03/26 04:50:50;;;;;;;35.38;8.85;;;;;;;9.39;100.00;100342.97;6255762;22;20081;-85
2023/03/26 04:53:20;;;;;;;48.22;9.18;;;;;;;9.40;100.00;100355.31;6281422;22;20033;-85
2023/03/26 04:56:16;;;;;;;41.92;9.13;;;;;;;9.28;100.00;100343.66;6275550;22;20023;-86
2023/03/26 04:59:28;;;;;;;46.75;9.18;;;;;;;9.42;100.00;100339.25;6261549;22;20065;-85
2023/03/26 05:01:58;;;;;;;48.60;10.13;;;;;;;9.41;100.00;100334.88;6281534;22;20845;-85
2023/03/26 05:04:28;;;;;;;40.42;10.27;;;;;;;9.47;100.00;100330.00;6281833;22;20011;-85
2023/03/26 05:06:56;;;;;;;45.78;9.15;;;;;;;9.32;100.00;100329.22;6281621;22;20026;-85
2023/03/26 05:09:31;;;;;;;40.55;9.57;;;;;;;9.34;100.00;100327.31;6281942;22;20023;-86
2023/03/26 05:12:09;;;;;;;35.13;8.65;;;;;;;9.27;100.00;100327.81;6281613;22;20460;-85
2023/03/26 05:14:45;;;;;;;35.60;6.82;;;;;;;9.20;100.00;100324.72;6281855;22;20122;-85
2023/03/26 05:17:17;;;;;;;42.33;9.32;;;;;;;9.36;100.00;100324.53;6256124;22;20356;-85
2023/03/26 05:19:45;;;;;;;45.17;8.00;;;;;;;9.08;100.00;100321.03;6280421;22;20033;-85
2023/03/26 05:22:11;;;;;;;42.83;6.80;;;;;;;9.11;100.00;100320.00;6280133;22;20027;-84
2023/03/26 05:24:43;;;;;;;47.95;8.48;;;;;;;9.09;100.00;100316.59;6280025;22;20019;-86
2023/03/26 05:27:18;;;;;;;34.08;6.88;;;;;;;9.10;100.00;100314.78;6284260;22;20019;-86
2023/03/26 05:29:45;;;;;;;30.77;6.90;;;;;;;9.24;100.00;100306.75;6284211;22;20049;-86
2023/03/26 05:32:11;;;;;;;30.67;6.07;;;;;;;9.21;100.00;100299.81;6284906;22;20011;-86
2023/03/26 05:34:40;;;;;;;32.47;8.77;;;;;;;8.99;100.00;100297.72;6284646;22;20093;-87
2023/03/26 05:37:06;;;;;;;37.50;7.28;;;;;;;9.24;100.00;100293.44;6283195;22;20019;-85
2023/03/26 05:39:44;;;;;;;47.78;7.60;;;;;;;9.19;100.00;100285.78;6281721;22;20015;-86
2023/03/26 05:42:19;;;;;;;36.92;6.68;;;;;;;9.34;100.00;100284.75;6319325;22;20023;-86
2023/03/26 05:44:59;;;;;;;32.95;7.40;;;;;;;9.16;100.00;100280.63;6281082;22;20038;-86
2023/03/26 05:47:27;;;;;;;29.80;6.57;;;;;;;9.17;100.00;100281.50;6280701;22;20074;-86
2023/03/26 05:49:52;;;;;;;39.28;7.25;;;;;;;9.24;100.00;100278.34;6255996;22;20023;-85
2023/03/26 05:52:18;;;;;;;29.95;6.03;;;;;;;9.08;100.00;100277.63;6257065;22;20023;-86
2023/03/26 05:55:13;;;;;;;51.30;6.90;;;;;;;9.12;100.00;100268.50;6276022;22;20015;-86
2023/03/26 05:57:57;;;;;;;33.65;6.30;;;;;;;9.25;100.00;100261.41;6311727;22;20029;-86
2023/03/26 06:00:41;;;;;;;42.67;7.40;;;;;;;9.16;100.00;100263.84;6287447;22;20077;-85
2023/03/26 06:03:11;;;;;;;37.72;7.53;;;;;;;9.20;100.00;100257.34;6258024;22;20019;-85
2023/03/26 06:06:14;;;;;;;35.25;7.18;;;;;;;9.22;100.00;100256.28;6294788;22;20037;-86
2023/03/26 06:08:50;;;;;;;44.08;8.77;;;;;;;8.98;100.00;100256.09;6282632;22;20015;-85
2023/03/26 06:11:18;;;;;;;42.08;8.38;;;;;;;8.97;100.00;100253.56;6257056;22;20016;-85
2023/03/26 06:13:44;;;;;;;55.63;10.13;;;;;;;9.11;100.00;100248.19;6282413;22;20019;-86
2023/03/26 06:16:11;;;;;;;52.75;10.50;;;;;;;9.22;100.00;100240.31;6281430;22;20030;-85
2023/03/26 06:18:42;;;;;;;;;;;;;;;9.06;100.00;100237.00;6284288;22;20017;-85
2023/03/26 06:21:29;;;;;;;50.03;8.45;;;;;;;8.94;100.00;100232.50;6260809;22;19922;-86
2023/03/26 06:24:00;;;;;;;46.95;9.02;;;;;;;8.87;100.00;100236.50;6258301;22;20025;-86
2023/03/26 06:26:39;;;;;;;46.33;8.15;;;;;;;9.05;100.00;100225.50;6281532;22;20015;-85
2023/03/26 06:29:22;;;;;;;31.15;7.55;;;;;;;9.01;100.00;100218.69;6281790;22;20019;-85
2023/03/26 06:32:06;;;;;;;40.40;8.13;;;;;;;9.28;100.00;100207.13;6309742;22;20476;-85
2023/03/26 06:34:41;;;;;;;45.83;7.80;;;;;;;9.30;100.00;100205.22;6308818;22;20045;-85
2023/03/26 06:37:06;;;;;;;40.72;7.00;;;;;;;9.21;100.00;100209.38;6282017;22;20019;-85
2023/03/26 06:39:32;;;;;;;31.83;5.88;;;;;;;9.25;100.00;100202.88;6309327;22;20011;-84
2023/03/26 06:42:12;;;;;;;37.67;6.18;;;;;;;9.25;100.00;100210.88;6258594;22;20015;-84
2023/03/26 06:45:00;;;;;;;42.05;7.07;;;;;;;9.15;100.00;100206.28;6305678;22;20020;-85
2023/03/26 06:47:55;;;;;;;41.30;8.18;;;;;;;9.30;100.00;100206.09;6231230;23;20468;-85
2023/03/26 06:50:41;;;;;;;41.35;7.35;;;;;;;9.27;100.00;100202.78;6291361;22;20019;-86
2023/03/26 06:53:16;;;;;;;34.55;7.13;;;;;;;9.37;100.00;100201.19;6280933;22;20026;-85
2023/03/26 06:55:53;;;;;;;36.40;8.75;;;;;;;9.30;100.00;100202.56;6280700;22;20019;-85
2023/03/26 06:58:21;;;;;;;38.45;8.15;;;;;;;9.11;100.00;100210.94;6179630;22;20059;-85
2023/03/26 07:01:05;;;;;;;56.53;9.32;;;;;;;9.11;100.00;100218.91;6245221;22;20033;-85
2023/03/26 07:03:49;;;;;;;42.13;8.35;;;;;;;9.25;100.00;100215.34;6308679;22;20061;-85
2023/03/26 07:06:33;;;;;;;36.28;6.47;;;;;;;8.94;100.00;100219.22;6308553;22;20026;-84
2023/03/26 07:09:19;;;;;;;39.92;8.50;;;;;;;9.13;100.00;100210.81;6328854;22;20084;-85
2023/03/26 07:12:16;;;;;;;39.55;8.32;;;;;;;9.19;100.00;100211.28;6289421;22;20027;-84
2023/03/26 07:14:51;;;;;;;36.92;8.90;;;;;;;8.98;100.00;100213.56;6282505;22;20027;-84
2023/03/26 07:17:17;;;;;;;36.35;8.05;;;;;;;8.82;100.00;100213.72;6308762;22;20019;-85
2023/03/26 07:19:57;;;;;;;34.95;8.70;;;;;;;9.24;100.00;100201.19;6246242;22;20019;-84
2023/03/26 07:22:25;;;;;;;48.38;8.35;;;;;;;9.38;100.00;100200.22;6279572;22;20027;-85
2023/03/26 07:25:13;;;;;;;46.22;9.00;;;;;;;9.46;100.00;100194.38;6257848;22;20026;-84
2023/03/26 07:28:39;;;;;;;44.38;7.97;;;;;;;9.58;100.00;100199.69;6307419;22;20030;-85
2023/03/26 07:31:23;;;;;;;34.40;7.82;;;;;;;9.49;100.00;100192.38;6213634;23;20272;-85
2023/03/26 07:34:26;;;;;;;41.90;8.98;;;;;;;9.73;100.00;100187.13;6279725;22;20814;-85
2023/03/26 07:37:37;;;;;;;34.88;8.48;;;;;;;9.45;100.00;100185.56;6271953;22;20056;-85
2023/03/26 07:40:53;;;;;;;38.40;6.57;;;;;;;9.41;100.00;100185.88;6273509;22;20019;-85
2023/03/26 07:44:01;;;;;;;45.58;9.43;;;;;;;9.54;100.00;100174.28;6306312;22;20079;-85
2023/03/26 07:46:46;;;;;;;34.13;6.20;;;;;;;9.37;100.00;100174.56;6283731;22;20073;-85
2023/03/26 07:49:31;;;;;;;24.83;6.90;;;;;;;9.62;100.00;100167.53;6279690;22;20734;-86
2023/03/26 07:52:17;;;;;;;38.28;6.85;;;;;;;9.64;100.00;100171.81;6283265;22;20030;-86
2023/03/26 07:54:56;;;;;;;27.67;6.28;;;;;;;9.60;100.00;100172.97;6280743;22;20397;-86
2023/03/26 07:58:26;;;;;;;30.77;5.25;;;;;;;9.44;100.00;100167.88;6307764;22;20056;-87
2023/03/26 08:01:48;;;;;;;24.73;5.32;;;;;;;9.51;100.00;100158.50;6182403;23;20017;-85
2023/03/26 08:04:46;;;;;;;38.83;6.88;;;;;;;9.48;100.00;100158.72;6182439;23;20411;-86
2023/03/26 08:07:55;;;;;;;29.15;7.28;;;;;;;9.40;100.00;100163.72;6281064;22;20023;-85
2023/03/26 08:10:47;;;;;;;19.95;6.78;;;;;;;9.13;100.00;100160.28;6280399;22;20023;-85
2023/03/26 08:13:19;;;;;;;26.13;4.70;;;;;;;9.06;100.00;100163.38;6279752;22;20065;-86
2023/03/26 08:16:04;;;;;;;34.67;5.60;;;;;;;9.13;100.00;100162.94;6280740;22;20023;-86
2023/03/26 08:18:40;;;;;;;33.85;7.35;;;;;;;9.23;100.00;100164.03;6279974;22;20106;-86
2023/03/26 08:21:27;;;;;;;29.65;6.10;;;;;;;9.42;100.00;100168.94;6279275;22;20852;-86
2023/03/26 08:24:04;;;;;;;28.63;7.13;;;;;;;9.77;100.00;100167.31;6307067;22;20046;-86
2023/03/26 08:27:07;;;;;;;28.02;5.20;;;;;;;9.49;100.00;100171.06;6307584;22;20038;-86
2023/03/26 08:29:48;;;;;;;40.55;6.10;;;;;;;9.57;100.00;100162.53;6305857;22;20101;-88
2023/03/26 08:32:17;;;;;;;32.65;5.40;;;;;;;9.48;100.00;100165.84;6252554;22;20072;-87
2023/03/26 08:34:43;;;;;;;37.22;7.85;;;;;;;9.70;100.00;100170.53;6303874;22;20083;-88
2023/03/26 08:37:09;;;;;;;31.48;7.70;;;;;;;9.61;100.00;100166.69;6302029;22;20459;-87
2023/03/26 08:39:37;;;;;;;21.85;7.18;;;;;;;9.71;100.00;100170.41;6250301;22;20097;-88
2023/03/26 08:42:29;;;;;;;36.30;8.43;;;;;;;9.69;100.00;100160.81;6275808;22;20061;-89
2023/03/26 08:45:04;;;;;;;21.85;6.90;;;;;;;9.53;100.00;100167.22;6233250;22;20203;-87
2023/03/26 08:47:51;;;;;;;39.40;9.55;;;;;;;9.41;100.00;100167.25;6271885;22;20018;-87
2023/03/26 08:50:44;;;;;;;48.50;8.20;;;;;;;9.73;100.00;100163.16;6304636;22;20089;-87
2023/03/26 08:53:50;;;;;;;33.25;6.75;;;;;;;9.65;100.00;100160.22;6248301;22;20011;-88
2023/03/26 08:56:28;;;;;;;40.05;7.50;;;;;;;9.69;100.00;100161.69;6278006;22;20076;-87
2023/03/26 08:59:24;;;;;;;26.25;6.18;;;;;;;9.53;100.00;100163.72;6279850;22;20015;-87
2023/03/26 09:02:02;;;;;;;29.92;5.82;;;;;;;9.50;100.00;100159.47;6307531;22;20016;-88
2023/03/26 09:04:46;;;;;;;24.15;6.47;;;;;;;9.51;100.00;100158.50;6280130;22;20029;-87
2023/03/26 09:07:53;;;;;;;33.47;6.43;;;;;;;9.62;100.00;100165.72;6306413;22;20007;-87
2023/03/26 09:10:50;;;;;;;30.98;6.03;;;;;;;9.52;100.00;100162.88;6278127;22;20030;-88
2023/03/26 09:13:43;;;;;;;29.42;5.80;;;;;;;9.50;100.00;100172.78;6306117;22;20023;-88
2023/03/26 09:16:33;;;;;;;23.35;7.03;;;;;;;9.81;100.00;100166.13;6307627;22;20023;-87
2023/03/26 09:19:25;;;;;;;25.35;5.55;;;;;;;9.91;100.00;100155.69;6307875;22;20099;-87
2023/03/26 09:22:00;;;;;;;27.55;6.68;;;;;;;10.17;100.00;100148.47;6308550;22;20023;-87
2023/03/26 09:24:54;;;;;;;24.50;5.63;;;;;;;10.46;100.00;100140.19;6308733;22;20023;-88
2023/03/26 09:27:35;;;;;;;24.98;6.47;;;;;;;10.43;100.00;100141.25;6255827;22;20021;-88
2023/03/26 09:30:20;;;;;;;38.90;6.70;;;;;;;10.60;100.00;100137.34;6280602;22;20017;-88
2023/03/26 09:33:04;;;;;;;24.05;5.20;;;;;;;10.03;100.00;100148.63;6298949;22;20074;-88
2023/03/26 09:35:48;;;;;;;29.33;5.68;;;;;;;10.20;100.00;100156.25;6309055;22;20019;-90
2023/03/26 09:38:13;;;;;;;18.88;5.72;;;;;;;10.04;100.00;100159.19;6308802;22;20018;-89
2023/03/26 09:41:00;;;;;;;22.75;5.57;;;;;;;9.95;100.00;100156.31;6310192;22;20067;-88
2023/03/26 09:44:02;;;;;;;23.00;5.63;;;;;;;10.06;100.00;100153.72;6310933;22;20015;-89
2023/03/26 09:46:45;;;;;;;18.35;4.75;;;;;;;9.97;100.00;100157.91;6310253;22;20015;-89
2023/03/26 09:49:12;;;;;;;15.35;5.13;;;;;;;10.10;100.00;100156.06;6283700;22;20015;-88
2023/03/26 09:51:56;;;;;;;17.92;5.10;;;;;;;10.39;100.00;100155.75;6257877;22;20773;-89
2023/03/26 09:54:59;;;;;;;21.13;4.95;;;;;;;10.93;100.00;100143.75;6283194;22;20456;-88
2023/03/26 09:57:34;;;;;;;15.07;4.13;;;;;;;10.83;100.00;100144.44;6282867;22;20015;-88
2023/03/26 10:00:14;;;;;;;22.92;4.72;;;;;;;10.68;100.00;100148.28;6283246;22;20015;-89
2023/03/26 10:03:03;;;;;;;13.70;4.40;;;;;;;10.59;100.00;100152.50;6310165;22;20095;-89
2023/03/26 10:05:33;;;;;;;26.75;6.00;;;;;;;10.78;100.00;100154.63;6282041;22;20018;-88
2023/03/26 10:08:15;;;;;;;23.13;6.35;;;;;;;10.62;100.00;100152.25;6257014;22;20019;-89
2023/03/26 10:10:47;;;;;;;18.23;5.32;;;;;;;10.98;100.00;100147.78;6283036;22;20045;-89
2023/03/26 10:13:28;;;;;;;17.17;4.68;;;;;;;10.61;100.00;100152.38;6310719;22;20011;-89
2023/03/26 10:16:08;;;;;;;;;;;;;;;10.56;100.00;100159.88;6284041;22;20023;-90
2023/03/26 10:19:03;;;;;;;14.07;4.20;;;;;;;10.47;100.00;100156.06;6257121;22;20260;-88
2023/03/26 10:21:45;;;;;;;12.43;4.05;;;;;;;10.66;100.00;100158.22;6257103;22;20508;-88
2023/03/26 10:24:45;;;;;;;22.42;5.53;;;;;;;10.84;100.00;100148.84;6282400;22;20034;-89
2023/03/26 10:27:36;;;;;;;17.02;5.75;;;;;;;11.31;100.00;100148.84;6310656;22;20015;-88
2023/03/26 10:30:23;;;;;;;24.45;7.60;;;;;;;11.26;100.00;100140.34;6256464;22;20013;-88
2023/03/26 10:33:10;;;;;;;32.10;9.55;;;;;;;11.49;100.00;100138.53;6276627;22;20063;-89
2023/03/26 10:36:07;;;;;;;25.88;8.52;;;;;;;11.40;100.00;100143.63;6282252;22;20019;-89
2023/03/26 10:39:04;;;;;;;20.00;7.63;;;;;;;11.70;100.00;100141.31;6256628;22;20015;-89
2023/03/26 10:41:42;;;;;;;30.00;9.25;;;;;;;11.64;100.00;100139.97;6214926;22;20049;-88
2023/03/26 10:44:33;;;;;;;19.13;8.18;;;;;;;11.89;100.00;100139.75;6268297;22;20029;-88
2023/03/26 10:47:36;;;;;;;26.58;9.93;;;;;;;11.60;100.00;100135.88;6308679;22;20019;-89
2023/03/26 10:50:31;;;;;;;24.13;7.93;;;;;;;10.88;100.00;100146.78;6281385;22;20069;-88
2023/03/26 10:53:02;;;;;;;20.35;8.25;;;;;;;11.38;100.00;100145.56;6255694;22;20013;-88
2023/03/26 10:55:35;;;;;;;31.23;8.13;;;;;;;11.58;100.00;100145.81;6276321;22;20033;-87
2023/03/26 10:58:20;;;;;;;20.17;8.82;;;;;;;11.11;100.00;100145.88;6241038;22;20015;-88
2023/03/26 11:00:58;;;;;;;22.90;8.88;;;;;;;10.91;100.00;100145.69;6281554;22;20098;-88
2023/03/26 11:03:53;;;;;;;20.63;8.40;;;;;;;10.60;100.00;100156.00;6256414;22;20026;-88
2023/03/26 11:06:50;;;;;;;34.78;10.18;;;;;;;10.71;100.00;100164.06;6281913;22;20819;-87
2023/03/26 11:09:28;;;;;;;31.67;10.25;;;;;;;10.53;100.00;100152.09;6306741;22;20019;-87
2023/03/26 11:12:17;;;;;;;30.83;10.50;;;;;;;10.18;100.00;100166.16;6306839;22;20083;-88
2023/03/26 11:14:51;;;;;;;24.40;8.77;;;;;;;10.22;100.00;100166.78;6307119;22;20022;-88
2023/03/26 11:17:45;;;;;;;21.08;8.15;;;;;;;10.12;100.00;100175.44;6256651;22;20873;-88
2023/03/26 11:20:27;;;;;;;18.27;5.95;;;;;;;9.62;100.00;100173.72;6309187;22;20084;-89
2023/03/26 11:23:21;;;;;;;27.17;5.97;;;;;;;9.53;100.00;100196.50;6283251;22;20094;-88
2023/03/26 11:26:16;;;;;;;19.75;8.10;;;;;;;9.30;100.00;100199.91;6283238;22;20036;-88
2023/03/26 11:28:49;;;;;;;25.42;9.38;;;;;;;9.56;100.00;100196.28;6257584;22;20031;-88
2023/03/26 11:31:19;;;;;;;22.05;8.68;;;;;;;9.25;100.00;100199.38;6309064;22;20019;-88
2023/03/26 11:33:50;;;;;;;15.50;7.57;;;;;;;8.97;100.00;100209.19;6258098;22;20015;-88
2023/03/26 11:36:21;;;;;;;22.27;8.77;;;;;;;9.13;100.00;100200.19;6309646;22;20720;-88
2023/03/26 11:38:49;;;;;;;17.80;7.60;;;;;;;8.88;100.00;100208.97;6306956;22;20015;-88
2023/03/26 11:41:21;;;;;;;;;;;;;;;9.00;100.00;100213.47;6282080;22;20065;-89
2023/03/26 11:43:56;;;;;;;21.45;9.93;;;;;;;8.99;100.00;100217.94;6298506;22;19989;-89
2023/03/26 11:46:25;;;;;;;23.58;8.90;;;;;;;8.83;100.00;100217.25;6256159;22;20019;-89
2023/03/26 11:48:58;;;;;;;21.63;9.73;;;;;;;8.66;100.00;100214.84;6282139;22;20079;-89
2023/03/26 11:51:31;;;;;;;25.48;10.40;;;;;;;8.69;100.00;100212.00;6309469;22;20015;-89
2023/03/26 11:53:57;;;;;;;35.95;11.07;;;;;;;8.67;100.00;100225.38;6281889;22;20026;-89
2023/03/26 11:56:46;;;;;;;22.75;9.73;;;;;;;8.54;100.00;100225.34;6255757;22;20015;-90
2023/03/26 11:59:17;;;;;;;47.33;11.68;;;;;;;8.58;100.00;100225.97;6280565;22;20015;-89
2023/03/26 12:01:49;;;;;;;24.95;10.50;;;;;;;8.69;100.00;100222.63;6309159;22;20345;-89
2023/03/26 12:04:17;;;;;;;27.73;9.68;;;;;;;8.47;100.00;100234.63;6255677;22;20023;-89